createdAt,value
2022-08-19T00:00:11.138Z,20.25
2022-08-19T00:02:58.945Z,20.27
2022-08-19T00:05:26.923Z,20.31
2022-08-19T00:07:54.893Z,20.30
2022-08-19T00:10:22.853Z,20.30
2022-08-19T00:12:50.774Z,20.31
2022-08-19T00:15:22.063Z,20.29
2022-08-19T00:17:50.389Z,20.32
2022-08-19T00:20:22.163Z,20.34
2022-08-19T00:22:51.128Z,20.35
2022-08-19T00:25:19.446Z,20.34
2022-08-19T00:27:59.905Z,20.34
2022-08-19T00:30:30.463Z,20.31
2022-08-19T00:32:59.066Z,20.29
2022-08-19T00:35:28.340Z,20.27
2022-08-19T00:37:57.143Z,20.30
2022-08-19T00:40:26.073Z,20.24
2022-08-19T00:42:54.842Z,20.21
2022-08-19T00:45:27.295Z,20.17
2022-08-19T00:47:55.159Z,20.13
2022-08-19T00:50:24.119Z,20.11
2022-08-19T00:52:53.633Z,20.09
2022-08-19T00:55:29.730Z,20.06
2022-08-19T00:58:03.855Z,20.03
2022-08-19T01:00:32.843Z,20.04
2022-08-19T01:03:00.890Z,20.01
2022-08-19T01:05:30.694Z,19.99
2022-08-19T01:08:02.774Z,19.99
2022-08-19T01:10:38.134Z,19.97
2022-08-19T01:13:06.627Z,19.93
2022-08-19T01:15:45.754Z,19.91
2022-08-19T01:18:17.772Z,19.90
2022-08-19T01:20:46.556Z,19.84
2022-08-19T01:23:16.434Z,19.78
2022-08-19T01:25:54.704Z,19.74
2022-08-19T01:28:34.149Z,19.70
2022-08-19T01:31:26.503Z,19.66
2022-08-19T01:33:58.549Z,19.62
2022-08-19T01:36:43.979Z,19.58
2022-08-19T01:39:17.867Z,19.52
2022-08-19T01:41:46.583Z,19.46
2022-08-19T01:44:19.265Z,19.41
2022-08-19T01:46:49.564Z,19.35
2022-08-19T01:49:20.855Z,19.30
2022-08-19T01:51:50.671Z,19.27
2022-08-19T01:54:27.922Z,19.28
2022-08-19T01:57:12.342Z,19.29
2022-08-19T01:59:43.234Z,19.31
2022-08-19T02:02:11.464Z,19.35
2022-08-19T02:04:39.762Z,19.37
2022-08-19T02:07:09.086Z,19.41
2022-08-19T02:09:37.296Z,19.44
2022-08-19T02:12:08.847Z,19.49
2022-08-19T02:14:38.000Z,19.51
2022-08-19T02:17:05.837Z,19.53
2022-08-19T02:19:34.083Z,19.53
2022-08-19T02:22:01.957Z,19.57
2022-08-19T02:24:29.822Z,19.59
2022-08-19T02:26:58.313Z,19.59
2022-08-19T02:29:26.263Z,19.62
2022-08-19T02:31:54.083Z,19.64
2022-08-19T02:34:21.940Z,19.70
2022-08-19T02:36:51.758Z,19.72
2022-08-19T02:39:19.907Z,19.74
2022-08-19T02:41:47.807Z,19.76
2022-08-19T02:44:30.561Z,19.78
2022-08-19T02:46:59.653Z,19.86
2022-08-19T02:49:27.439Z,19.87
2022-08-19T02:51:55.336Z,19.89
2022-08-19T02:54:23.301Z,19.87
2022-08-19T02:56:51.126Z,19.88
2022-08-19T02:59:21.122Z,19.87
2022-08-19T03:01:51.118Z,19.89
2022-08-19T03:04:20.494Z,19.89
2022-08-19T03:06:48.774Z,19.91
2022-08-19T03:09:20.586Z,19.92
2022-08-19T03:11:48.772Z,19.96
2022-08-19T03:14:20.683Z,19.94
2022-08-19T03:16:52.947Z,19.89
2022-08-19T03:19:24.756Z,19.87
2022-08-19T03:21:53.260Z,19.86
2022-08-19T03:24:21.796Z,19.82
2022-08-19T03:26:58.329Z,19.80
2022-08-19T03:29:31.794Z,19.78
2022-08-19T03:32:04.862Z,19.76
2022-08-19T03:34:37.567Z,19.75
2022-08-19T03:37:13.454Z,19.74
2022-08-19T03:39:43.317Z,19.76
2022-08-19T03:42:38.594Z,19.73
2022-08-19T03:45:00.217Z,19.69
2022-08-19T03:47:28.037Z,19.65
2022-08-19T03:49:55.883Z,19.60
2022-08-19T03:52:23.754Z,19.58
2022-08-19T03:54:51.544Z,19.56
2022-08-19T03:57:19.578Z,19.54
2022-08-19T03:59:47.604Z,19.53
2022-08-19T04:02:15.462Z,19.54
2022-08-19T04:04:45.098Z,19.51
2022-08-19T04:07:22.374Z,19.47
2022-08-19T04:09:51.407Z,19.44
2022-08-19T04:12:20.935Z,19.43
2022-08-19T04:14:48.886Z,19.43
2022-08-19T04:17:16.843Z,19.43
2022-08-19T04:19:45.527Z,19.42
2022-08-19T04:22:13.554Z,19.43
2022-08-19T04:24:41.356Z,19.39
2022-08-19T04:27:09.140Z,19.32
2022-08-19T04:29:40.484Z,19.24
2022-08-19T04:32:09.805Z,19.18
2022-08-19T04:35:01.128Z,19.11
2022-08-19T04:37:34.996Z,19.04
2022-08-19T04:40:25.167Z,19.01
2022-08-19T04:42:54.562Z,19.01
2022-08-19T04:45:23.247Z,19.02
2022-08-19T04:48:26.704Z,19.02
2022-08-19T04:50:49.226Z,19.03
2022-08-19T04:53:17.084Z,19.01
2022-08-19T04:55:44.899Z,19.00
2022-08-19T04:58:12.694Z,18.99
2022-08-19T05:00:41.021Z,19.01
2022-08-19T05:03:09.565Z,19.00
2022-08-19T05:05:45.691Z,19.01
2022-08-19T05:08:31.313Z,19.01
2022-08-19T05:10:59.651Z,18.97
2022-08-19T05:13:28.165Z,18.94
2022-08-19T05:15:59.026Z,18.93
2022-08-19T05:18:45.950Z,18.93
2022-08-19T05:21:36.278Z,18.94
2022-08-19T05:24:09.953Z,18.98
2022-08-19T05:26:40.430Z,19.00
2022-08-19T05:29:09.490Z,19.05
2022-08-19T05:31:39.481Z,19.11
2022-08-19T05:34:20.082Z,19.14
2022-08-19T05:36:50.674Z,19.16
2022-08-19T05:39:21.568Z,19.16
2022-08-19T05:41:58.244Z,19.13
2022-08-19T05:44:32.391Z,19.08
2022-08-19T05:47:03.474Z,19.02
2022-08-19T05:49:32.832Z,19.00
2022-08-19T05:52:09.194Z,18.98
2022-08-19T05:54:42.653Z,18.97
2022-08-19T05:57:11.735Z,18.97
2022-08-19T05:59:41.198Z,18.98
2022-08-19T06:02:09.234Z,18.98
2022-08-19T06:04:37.127Z,19.01
2022-08-19T06:07:12.230Z,19.01
2022-08-19T06:09:43.704Z,19.00
2022-08-19T06:12:35.284Z,19.02
2022-08-19T06:15:10.890Z,19.04
2022-08-19T06:17:39.626Z,19.02
2022-08-19T06:20:12.948Z,19.05
2022-08-19T06:22:47.484Z,19.13
2022-08-19T06:25:16.411Z,19.22
2022-08-19T06:28:11.531Z,19.19
2022-08-19T06:30:33.555Z,19.10
2022-08-19T06:33:01.408Z,19.00
2022-08-19T06:35:30.496Z,18.91
2022-08-19T06:37:58.558Z,18.82
2022-08-19T06:40:28.494Z,18.78
2022-08-19T06:42:57.401Z,18.73
2022-08-19T06:45:35.378Z,18.68
2022-08-19T06:48:04.037Z,18.66
2022-08-19T06:50:32.329Z,18.69
2022-08-19T06:53:01.374Z,18.70
2022-08-19T06:55:33.435Z,18.74
2022-08-19T06:58:05.752Z,18.87
2022-08-19T07:00:34.861Z,18.97
2022-08-19T07:03:07.653Z,19.01
2022-08-19T07:05:45.424Z,19.02
2022-08-19T07:08:14.934Z,19.01
2022-08-19T07:10:47.351Z,18.98
2022-08-19T07:13:15.628Z,18.97
2022-08-19T07:15:43.611Z,18.97
2022-08-19T07:18:11.927Z,18.99
2022-08-19T07:20:42.002Z,19.03
2022-08-19T07:23:11.209Z,19.01
2022-08-19T07:25:51.389Z,18.94
2022-08-19T07:28:24.128Z,18.85
2022-08-19T07:30:53.983Z,18.76
2022-08-19T07:33:23.615Z,18.70
2022-08-19T07:35:51.582Z,18.68
2022-08-19T07:38:19.497Z,18.61
2022-08-19T07:40:47.511Z,18.56
2022-08-19T07:43:17.390Z,18.61
2022-08-19T07:45:46.418Z,18.66
2022-08-19T07:48:15.408Z,18.70
2022-08-19T07:50:43.807Z,18.72
2022-08-19T07:53:13.320Z,18.69
2022-08-19T07:55:43.857Z,18.71
2022-08-19T07:58:16.359Z,18.76
2022-08-19T08:00:48.630Z,18.80
2022-08-19T08:03:20.037Z,18.83
2022-08-19T08:06:06.589Z,18.89
2022-08-19T08:08:53.010Z,18.97
2022-08-19T08:11:23.910Z,19.09
2022-08-19T08:14:01.021Z,19.25
2022-08-19T08:16:47.313Z,19.47
2022-08-19T08:19:20.562Z,19.72
2022-08-19T08:21:57.485Z,19.94
2022-08-19T08:24:28.765Z,20.06
2022-08-19T08:26:58.692Z,20.06
2022-08-19T08:29:34.443Z,20.06
2022-08-19T08:32:04.564Z,20.06
2022-08-19T08:34:43.814Z,20.18
2022-08-19T08:37:11.775Z,20.34
2022-08-19T08:39:39.693Z,20.46
2022-08-19T08:42:37.267Z,20.47
2022-08-19T08:45:15.873Z,20.53
2022-08-19T08:47:53.219Z,20.53
2022-08-19T08:50:30.853Z,20.43
2022-08-19T08:52:59.823Z,20.30
2022-08-19T08:55:36.460Z,20.24
2022-08-19T08:58:19.049Z,20.18
2022-08-19T09:00:50.905Z,20.09
2022-08-19T09:03:27.279Z,20.11
2022-08-19T09:06:30.582Z,20.24
2022-08-19T09:09:35.892Z,20.36
2022-08-19T09:12:32.737Z,20.38
2022-08-19T09:15:13.041Z,20.36
2022-08-19T09:17:41.363Z,20.33
2022-08-19T09:20:10.396Z,20.33
2022-08-19T09:22:41.126Z,20.32
2022-08-19T09:25:11.915Z,20.30
2022-08-19T09:27:43.600Z,20.38
2022-08-19T09:30:23.640Z,20.54
2022-08-19T09:32:55.638Z,20.66
2022-08-19T09:35:29.716Z,20.65
2022-08-19T09:37:59.448Z,20.69
2022-08-19T09:40:30.606Z,20.61
2022-08-19T09:43:09.911Z,20.57
2022-08-19T09:45:39.742Z,20.64
2022-08-19T09:48:07.747Z,20.71
2022-08-19T09:50:39.537Z,20.72
2022-08-19T09:53:25.096Z,20.79
2022-08-19T09:55:56.551Z,20.97
2022-08-19T09:58:28.582Z,21.18
2022-08-19T10:00:59.473Z,21.46
2022-08-19T10:03:30.052Z,21.81
2022-08-19T10:06:01.634Z,22.12
2022-08-19T10:08:34.394Z,22.23
2022-08-19T10:11:28.509Z,22.29
2022-08-19T10:13:53.610Z,22.30
2022-08-19T10:16:29.237Z,22.35
2022-08-19T10:19:00.256Z,22.31
2022-08-19T10:21:35.282Z,22.30
2022-08-19T10:24:06.447Z,22.27
2022-08-19T10:26:38.065Z,22.29
2022-08-19T10:29:09.277Z,22.36
2022-08-19T10:32:00.898Z,22.45
2022-08-19T10:34:28.183Z,22.42
2022-08-19T10:37:01.095Z,22.40
2022-08-19T10:39:33.675Z,22.33
2022-08-19T10:42:14.672Z,22.16
2022-08-19T10:44:43.333Z,22.01
2022-08-19T10:47:17.597Z,21.97
2022-08-19T10:50:14.240Z,21.81
2022-08-19T10:52:50.385Z,21.80
2022-08-19T10:55:42.197Z,21.83
2022-08-19T10:58:23.083Z,21.76
2022-08-19T11:00:57.908Z,21.80
2022-08-19T11:03:31.611Z,21.97
2022-08-19T11:06:08.743Z,22.24
2022-08-19T11:08:38.854Z,22.43
2022-08-19T11:11:09.122Z,22.43
2022-08-19T11:13:40.970Z,22.47
2022-08-19T11:16:14.939Z,22.55
2022-08-19T11:18:49.214Z,22.71
2022-08-19T11:21:35.601Z,22.84
2022-08-19T11:24:22.428Z,22.90
2022-08-19T11:26:54.234Z,23.00
2022-08-19T11:29:23.027Z,23.10
2022-08-19T11:31:51.155Z,23.10
2022-08-19T11:34:24.246Z,23.14
2022-08-19T11:36:52.877Z,23.07
2022-08-19T11:39:23.496Z,23.01
2022-08-19T11:41:52.096Z,23.06
2022-08-19T11:44:20.199Z,23.10
2022-08-19T11:46:48.582Z,23.13
2022-08-19T11:49:22.208Z,23.17
2022-08-19T11:51:51.688Z,23.10
2022-08-19T11:54:22.118Z,23.04
2022-08-19T11:56:50.109Z,23.06
2022-08-19T11:59:18.098Z,23.01
2022-08-19T12:01:46.244Z,22.92
2022-08-19T12:04:14.682Z,22.95
2022-08-19T12:06:42.791Z,23.04
2022-08-19T12:09:11.924Z,22.96
2022-08-19T12:11:41.578Z,22.77
2022-08-19T12:14:15.143Z,22.77
2022-08-19T12:16:51.182Z,22.85
2022-08-19T12:19:22.524Z,22.77
2022-08-19T12:21:52.598Z,22.83
2022-08-19T12:24:24.229Z,22.73
2022-08-19T12:26:53.631Z,22.67
2022-08-19T12:29:29.342Z,22.77
2022-08-19T12:32:02.229Z,23.00
2022-08-19T12:34:33.615Z,23.15
2022-08-19T12:37:04.696Z,23.35
2022-08-19T12:39:40.626Z,23.46
2022-08-19T12:42:11.590Z,23.52
2022-08-19T12:44:41.680Z,23.50
2022-08-19T12:47:14.756Z,23.28
2022-08-19T12:49:53.339Z,23.16
2022-08-19T12:52:25.570Z,23.28
2022-08-19T12:54:56.774Z,23.44
2022-08-19T12:57:33.033Z,23.52
2022-08-19T13:00:12.885Z,23.54
2022-08-19T13:02:47.546Z,23.55
2022-08-19T13:05:24.014Z,23.58
2022-08-19T13:07:56.980Z,23.54
2022-08-19T13:10:35.580Z,23.52
2022-08-19T13:13:10.832Z,23.49
2022-08-19T13:15:44.008Z,23.56
2022-08-19T13:18:13.649Z,23.70
2022-08-19T13:20:42.502Z,23.86
2022-08-19T13:23:20.956Z,23.99
2022-08-19T13:26:01.654Z,24.16
2022-08-19T13:28:50.288Z,24.24
2022-08-19T13:31:46.206Z,24.38
2022-08-19T13:34:15.875Z,24.54
2022-08-19T13:36:44.538Z,24.53
2022-08-19T13:39:13.503Z,24.38
2022-08-19T13:41:50.892Z,24.30
2022-08-19T13:44:20.435Z,24.29
2022-08-19T13:46:54.229Z,24.17
2022-08-19T13:49:24.154Z,24.01
2022-08-19T13:51:52.466Z,23.96
2022-08-19T13:54:20.750Z,24.05
2022-08-19T13:56:48.868Z,24.01
2022-08-19T13:59:17.195Z,24.11
2022-08-19T14:01:46.222Z,24.18
2022-08-19T14:04:14.131Z,24.26
2022-08-19T14:06:41.897Z,24.31
2022-08-19T14:09:09.748Z,24.22
2022-08-19T14:11:38.341Z,24.18
2022-08-19T14:14:06.532Z,24.23
2022-08-19T14:16:34.596Z,24.15
2022-08-19T14:19:02.598Z,24.18
2022-08-19T14:21:30.401Z,24.19
2022-08-19T14:23:58.287Z,24.20
2022-08-19T14:26:26.227Z,24.18
2022-08-19T14:28:55.464Z,24.11
2022-08-19T14:31:27.833Z,24.02
2022-08-19T14:33:58.507Z,23.83
2022-08-19T14:36:26.310Z,23.75
2022-08-19T14:38:54.242Z,23.83
2022-08-19T14:41:24.739Z,23.88
2022-08-19T14:43:54.938Z,24.07
2022-08-19T14:46:29.470Z,24.16
2022-08-19T14:48:57.847Z,24.11
2022-08-19T14:51:28.340Z,24.11
2022-08-19T14:53:57.163Z,23.92
2022-08-19T14:56:31.344Z,23.85
2022-08-19T14:59:01.985Z,23.87
2022-08-19T15:01:30.059Z,23.90
2022-08-19T15:03:57.978Z,23.96
2022-08-19T15:06:26.537Z,23.92
2022-08-19T15:08:55.227Z,23.78
2022-08-19T15:11:28.582Z,23.74
2022-08-19T15:13:57.691Z,23.68
2022-08-19T15:16:27.566Z,23.65
2022-08-19T15:18:59.940Z,23.70
2022-08-19T15:21:30.359Z,23.79
2022-08-19T15:24:00.201Z,23.81
2022-08-19T15:26:32.449Z,23.88
2022-08-19T15:29:02.547Z,23.96
2022-08-19T15:31:36.482Z,23.90
2022-08-19T15:34:07.408Z,23.73
2022-08-19T15:36:36.877Z,23.69
2022-08-19T15:39:07.321Z,23.74
2022-08-19T15:41:37.139Z,23.82
2022-08-19T15:44:13.231Z,23.85
2022-08-19T15:46:45.369Z,23.84
2022-08-19T15:49:17.470Z,23.90
2022-08-19T15:51:49.347Z,23.85
2022-08-19T15:54:21.771Z,23.79
2022-08-19T15:57:11.480Z,23.68
2022-08-19T16:00:00.104Z,23.64
2022-08-19T16:02:53.517Z,23.67
2022-08-19T16:05:45.534Z,23.65
2022-08-19T16:08:13.691Z,23.50
2022-08-19T16:10:41.633Z,23.36
2022-08-19T16:13:10.948Z,23.31
2022-08-19T16:15:42.026Z,23.19
2022-08-19T16:18:09.686Z,23.08
2022-08-19T16:20:37.611Z,23.06
2022-08-19T16:23:05.486Z,23.07
2022-08-19T16:25:33.688Z,23.05
2022-08-19T16:28:07.423Z,22.96
2022-08-19T16:30:39.661Z,22.79
2022-08-19T16:33:09.523Z,22.85
2022-08-19T16:35:37.932Z,22.94
2022-08-19T16:38:07.100Z,22.93
2022-08-19T16:40:35.830Z,22.93
2022-08-19T16:43:05.360Z,23.05
2022-08-19T16:45:33.219Z,23.23
2022-08-19T16:48:01.182Z,23.35
2022-08-19T16:50:48.260Z,23.35
2022-08-19T16:53:22.382Z,23.25
2022-08-19T16:55:51.294Z,23.17
2022-08-19T16:58:22.347Z,23.08
2022-08-19T17:01:03.263Z,22.89
2022-08-19T17:03:36.783Z,22.71
2022-08-19T17:06:17.844Z,22.75
2022-08-19T17:08:54.403Z,22.85
2022-08-19T17:11:25.526Z,22.89
2022-08-19T17:13:55.502Z,22.82
2022-08-19T17:16:29.019Z,22.73
2022-08-19T17:19:01.091Z,22.72
2022-08-19T17:21:33.139Z,22.78
2022-08-19T17:24:05.049Z,22.85
2022-08-19T17:26:33.091Z,22.93
2022-08-19T17:29:01.061Z,23.01
2022-08-19T17:31:31.686Z,23.11
2022-08-19T17:34:01.187Z,23.12
2022-08-19T17:36:34.105Z,23.05
2022-08-19T17:39:05.083Z,22.96
2022-08-19T17:41:34.242Z,22.84
2022-08-19T17:44:04.203Z,22.72
2022-08-19T17:46:32.516Z,22.66
2022-08-19T17:49:00.695Z,22.62
2022-08-19T17:51:35.015Z,22.55
2022-08-19T17:54:05.559Z,22.43
2022-08-19T17:56:33.458Z,22.34
2022-08-19T17:59:01.653Z,22.22
2022-08-19T18:01:43.794Z,22.16
2022-08-19T18:04:19.796Z,22.10
2022-08-19T18:06:53.825Z,22.03
2022-08-19T18:09:38.742Z,21.95
2022-08-19T18:12:13.419Z,21.83
2022-08-19T18:14:42.036Z,21.74
2022-08-19T18:17:13.586Z,21.68
2022-08-19T18:19:44.025Z,21.59
2022-08-19T18:22:22.757Z,21.46
2022-08-19T18:24:51.057Z,21.33
2022-08-19T18:27:18.981Z,21.22
2022-08-19T18:29:47.276Z,21.09
2022-08-19T18:32:23.625Z,20.96
2022-08-19T18:34:53.396Z,20.90
2022-08-19T18:37:22.535Z,20.81
2022-08-19T18:40:09.190Z,20.70
2022-08-19T18:43:02.569Z,20.62
2022-08-19T18:45:51.352Z,20.55
2022-08-19T18:48:38.154Z,20.42
2022-08-19T18:51:07.251Z,20.32
2022-08-19T18:53:38.447Z,20.23
2022-08-19T18:56:08.217Z,20.15
2022-08-19T18:58:39.094Z,20.05
2022-08-19T19:01:15.503Z,19.99
2022-08-19T19:03:49.464Z,19.92
2022-08-19T19:06:26.316Z,19.86
2022-08-19T19:08:57.861Z,19.81
2022-08-19T19:11:36.269Z,19.77
2022-08-19T19:14:19.216Z,19.72
2022-08-19T19:16:51.788Z,19.62
2022-08-19T19:19:24.057Z,19.55
2022-08-19T19:21:53.159Z,19.52
2022-08-19T19:24:29.771Z,19.45
2022-08-19T19:27:01.262Z,19.40
2022-08-19T19:29:29.206Z,19.34
2022-08-19T19:31:57.118Z,19.30
2022-08-19T19:34:29.783Z,19.23
2022-08-19T19:36:57.926Z,19.18
2022-08-19T19:39:45.262Z,19.15
2022-08-19T19:42:21.452Z,19.11
2022-08-19T19:44:55.225Z,19.07
2022-08-19T19:47:24.505Z,19.03
2022-08-19T19:52:42.774Z,19.00
2022-08-19T19:55:18.131Z,18.98
2022-08-19T19:57:48.713Z,18.94
2022-08-19T20:00:19.082Z,18.92
2022-08-19T20:02:50.392Z,18.91
2022-08-19T20:05:23.818Z,18.94
2022-08-19T20:08:30.587Z,18.90
2022-08-19T20:11:03.680Z,18.84
2022-08-19T20:13:33.416Z,18.77
2022-08-19T20:16:03.814Z,18.70
2022-08-19T20:18:31.798Z,18.61
2022-08-19T20:21:00.663Z,18.53
2022-08-19T20:23:28.550Z,18.47
2022-08-19T20:25:56.422Z,18.43
2022-08-19T20:28:24.961Z,18.38
2022-08-19T20:30:54.071Z,18.35
2022-08-19T20:33:22.037Z,18.28
2022-08-19T20:35:49.870Z,18.25
2022-08-19T20:38:18.100Z,18.22
2022-08-19T20:40:46.537Z,18.16
2022-08-19T20:43:15.045Z,18.12
2022-08-19T20:45:43.085Z,18.10
2022-08-19T20:48:12.511Z,18.08
2022-08-19T20:50:40.848Z,18.02
2022-08-19T20:53:19.844Z,17.99
2022-08-19T20:55:49.656Z,17.95
2022-08-19T20:58:21.292Z,17.93
2022-08-19T21:00:50.439Z,17.91
2022-08-19T21:03:22.799Z,17.84
2022-08-19T21:05:50.905Z,17.78
2022-08-19T21:08:19.606Z,17.78
2022-08-19T21:10:51.403Z,17.76
2022-08-19T21:13:21.911Z,17.74
2022-08-19T21:15:50.535Z,17.68
2022-08-19T21:18:21.653Z,17.58
2022-08-19T21:20:51.011Z,17.51
2022-08-19T21:23:21.926Z,17.47
2022-08-19T21:25:55.533Z,17.41
2022-08-19T21:28:34.275Z,17.35
2022-08-19T21:31:06.517Z,17.29
2022-08-19T21:33:34.366Z,17.29
2022-08-19T21:36:03.077Z,17.26
2022-08-19T21:38:31.622Z,17.21
2022-08-19T21:41:00.929Z,17.14
2022-08-19T21:43:35.071Z,17.09
2022-08-19T21:46:03.929Z,17.05
2022-08-19T21:48:31.826Z,16.99
2022-08-19T21:50:59.609Z,16.93
2022-08-19T21:53:31.486Z,16.89
2022-08-19T21:56:06.582Z,16.88
2022-08-19T21:58:36.463Z,16.86
2022-08-19T22:01:07.796Z,16.82
2022-08-19T22:03:37.825Z,16.79
2022-08-19T22:06:06.237Z,16.75
2022-08-19T22:08:33.982Z,16.73
2022-08-19T22:11:03.083Z,16.69
2022-08-19T22:13:40.096Z,16.64
2022-08-19T22:16:09.777Z,16.61
2022-08-19T22:18:37.662Z,16.57
2022-08-19T22:21:11.207Z,16.55
2022-08-19T22:23:44.372Z,16.55
2022-08-19T22:26:13.714Z,16.52
2022-08-19T22:28:42.807Z,16.49
2022-08-19T22:31:11.453Z,16.46
2022-08-19T22:33:40.283Z,16.44
2022-08-19T22:36:08.170Z,16.42
2022-08-19T22:38:37.370Z,16.41
2022-08-19T22:41:07.869Z,16.39
2022-08-19T22:43:37.465Z,16.36
2022-08-19T22:46:06.594Z,16.33
2022-08-19T22:48:46.609Z,16.30
2022-08-19T22:51:34.328Z,16.31
2022-08-19T22:54:02.678Z,16.29
2022-08-19T22:56:30.822Z,16.28
2022-08-19T22:58:58.724Z,16.25
2022-08-19T23:01:30.586Z,16.25
2022-08-19T23:03:59.919Z,16.21
2022-08-19T23:06:33.943Z,16.16
2022-08-19T23:09:05.329Z,16.18
2022-08-19T23:11:38.098Z,16.16
2022-08-19T23:14:11.359Z,16.17
2022-08-19T23:16:41.596Z,16.16
2022-08-19T23:19:10.363Z,16.11
2022-08-19T23:21:39.794Z,16.04
2022-08-19T23:24:07.886Z,15.98
2022-08-19T23:26:36.305Z,15.95
2022-08-19T23:29:24.350Z,15.93
2022-08-19T23:31:52.238Z,15.92
2022-08-19T23:34:20.029Z,15.92
2022-08-19T23:36:48.398Z,15.88
2022-08-19T23:39:16.134Z,15.86
2022-08-19T23:41:43.793Z,15.87
2022-08-19T23:44:14.652Z,15.83
2022-08-19T23:46:54.293Z,15.80
2022-08-19T23:49:23.695Z,15.77
2022-08-19T23:51:51.722Z,15.72
2022-08-19T23:54:19.454Z,15.67
2022-08-19T23:56:47.184Z,15.64
2022-08-19T23:59:14.931Z,15.57
